sensor_id;sensor_type;location;lat;lon;timestamp;P1;durP1;ratioP1;P2;durP2;ratioP2
25657;SDS011;13517;59.320;18.042;2024-02-15T00:00:04;180.57;;;17.27;;
25657;SDS011;13517;59.320;18.042;2024-02-15T00:02:30;107.63;;;16.33;;
25657;SDS011;13517;59.320;18.042;2024-02-15T00:04:56;309.40;;;22.10;;
25657;SDS011;13517;59.320;18.042;2024-02-15T00:07:21;103.43;;;16.45;;
25657;SDS011;13517;59.320;18.042;2024-02-15T00:09:48;228.52;;;20.58;;
25657;SDS011;13517;59.320;18.042;2024-02-15T00:12:13;148.48;;;17.52;;
25657;SDS011;13517;59.320;18.042;2024-02-15T00:14:39;145.98;;;17.13;;
25657;SDS011;13517;59.320;18.042;2024-02-15T00:17:04;170.68;;;18.33;;
25657;SDS011;13517;59.320;18.042;2024-02-15T00:19:30;163.98;;;17.13;;
25657;SDS011;13517;59.320;18.042;2024-02-15T00:21:55;131.20;;;16.15;;
25657;SDS011;13517;59.320;18.042;2024-02-15T00:24:22;123.55;;;16.48;;
25657;SDS011;13517;59.320;18.042;2024-02-15T00:26:47;167.68;;;16.98;;
25657;SDS011;13517;59.320;18.042;2024-02-15T00:29:13;104.47;;;15.88;;
25657;SDS011;13517;59.320;18.042;2024-02-15T00:31:39;252.90;;;20.48;;
25657;SDS011;13517;59.320;18.042;2024-02-15T00:34:05;163.50;;;17.95;;
25657;SDS011;13517;59.320;18.042;2024-02-15T00:36:31;158.88;;;17.80;;
25657;SDS011;13517;59.320;18.042;2024-02-15T00:38:58;150.63;;;18.63;;
25657;SDS011;13517;59.320;18.042;2024-02-15T00:41:24;151.10;;;18.10;;
25657;SDS011;13517;59.320;18.042;2024-02-15T00:43:49;171.50;;;18.67;;
25657;SDS011;13517;59.320;18.042;2024-02-15T00:46:15;182.70;;;19.27;;
25657;SDS011;13517;59.320;18.042;2024-02-15T00:48:41;142.23;;;18.88;;
25657;SDS011;13517;59.320;18.042;2024-02-15T00:51:06;150.90;;;17.85;;
25657;SDS011;13517;59.320;18.042;2024-02-15T00:53:32;183.75;;;19.10;;
25657;SDS011;13517;59.320;18.042;2024-02-15T00:55:58;142.93;;;18.55;;
25657;SDS011;13517;59.320;18.042;2024-02-15T00:58:23;164.68;;;18.17;;
25657;SDS011;13517;59.320;18.042;2024-02-15T01:00:50;178.40;;;16.85;;
25657;SDS011;13517;59.320;18.042;2024-02-15T01:03:15;124.78;;;16.23;;
25657;SDS011;13517;59.320;18.042;2024-02-15T01:05:41;138.70;;;16.58;;
25657;SDS011;13517;59.320;18.042;2024-02-15T01:08:06;197.25;;;18.35;;
25657;SDS011;13517;59.320;18.042;2024-02-15T01:10:33;152.50;;;16.77;;
25657;SDS011;13517;59.320;18.042;2024-02-15T01:12:59;160.27;;;17.05;;
25657;SDS011;13517;59.320;18.042;2024-02-15T01:15:25;140.10;;;17.50;;
25657;SDS011;13517;59.320;18.042;2024-02-15T01:17:50;115.55;;;15.93;;
25657;SDS011;13517;59.320;18.042;2024-02-15T01:20:16;96.30;;;14.32;;
25657;SDS011;13517;59.320;18.042;2024-02-15T01:22:41;204.30;;;16.95;;
25657;SDS011;13517;59.320;18.042;2024-02-15T01:25:07;168.77;;;17.42;;
25657;SDS011;13517;59.320;18.042;2024-02-15T01:27:33;80.00;;;15.48;;
25657;SDS011;13517;59.320;18.042;2024-02-15T01:29:59;103.35;;;14.88;;
25657;SDS011;13517;59.320;18.042;2024-02-15T01:32:24;102.57;;;15.70;;
25657;SDS011;13517;59.320;18.042;2024-02-15T01:34:52;83.50;;;13.93;;
25657;SDS011;13517;59.320;18.042;2024-02-15T01:37:22;87.40;;;16.25;;
25657;SDS011;13517;59.320;18.042;2024-02-15T01:39:48;88.85;;;14.80;;
25657;SDS011;13517;59.320;18.042;2024-02-15T01:42:15;96.55;;;15.73;;
25657;SDS011;13517;59.320;18.042;2024-02-15T01:44:40;90.20;;;14.15;;
25657;SDS011;13517;59.320;18.042;2024-02-15T01:47:08;78.40;;;16.35;;
25657;SDS011;13517;59.320;18.042;2024-02-15T01:49:35;68.63;;;14.45;;
25657;SDS011;13517;59.320;18.042;2024-02-15T01:52:00;88.60;;;14.10;;
25657;SDS011;13517;59.320;18.042;2024-02-15T01:54:29;75.65;;;13.90;;
25657;SDS011;13517;59.320;18.042;2024-02-15T01:56:56;80.20;;;13.95;;
25657;SDS011;13517;59.320;18.042;2024-02-15T01:59:23;109.35;;;15.52;;
25657;SDS011;13517;59.320;18.042;2024-02-15T02:01:50;77.82;;;15.40;;
25657;SDS011;13517;59.320;18.042;2024-02-15T02:04:15;73.47;;;13.70;;
25657;SDS011;13517;59.320;18.042;2024-02-15T02:06:41;65.68;;;14.18;;
25657;SDS011;13517;59.320;18.042;2024-02-15T02:09:13;72.90;;;14.30;;
25657;SDS011;13517;59.320;18.042;2024-02-15T02:11:43;95.93;;;13.88;;
25657;SDS011;13517;59.320;18.042;2024-02-15T02:14:10;85.70;;;12.65;;
25657;SDS011;13517;59.320;18.042;2024-02-15T02:16:36;80.20;;;13.35;;
25657;SDS011;13517;59.320;18.042;2024-02-15T02:19:04;91.50;;;12.77;;
25657;SDS011;13517;59.320;18.042;2024-02-15T02:21:34;259.35;;;17.92;;
25657;SDS011;13517;59.320;18.042;2024-02-15T02:24:01;62.65;;;12.65;;
25657;SDS011;13517;59.320;18.042;2024-02-15T02:26:33;86.50;;;13.80;;
25657;SDS011;13517;59.320;18.042;2024-02-15T02:28:59;94.63;;;13.02;;
25657;SDS011;13517;59.320;18.042;2024-02-15T02:31:29;79.65;;;12.57;;
25657;SDS011;13517;59.320;18.042;2024-02-15T02:34:00;61.65;;;12.43;;
25657;SDS011;13517;59.320;18.042;2024-02-15T02:36:26;45.08;;;11.98;;
25657;SDS011;13517;59.320;18.042;2024-02-15T02:38:52;70.82;;;12.63;;
25657;SDS011;13517;59.320;18.042;2024-02-15T02:41:18;63.90;;;13.00;;
25657;SDS011;13517;59.320;18.042;2024-02-15T02:43:48;53.55;;;11.90;;
25657;SDS011;13517;59.320;18.042;2024-02-15T02:46:13;53.17;;;11.98;;
25657;SDS011;13517;59.320;18.042;2024-02-15T02:48:39;66.82;;;12.32;;
25657;SDS011;13517;59.320;18.042;2024-02-15T02:51:05;53.45;;;11.10;;
25657;SDS011;13517;59.320;18.042;2024-02-15T02:53:32;65.72;;;11.63;;
25657;SDS011;13517;59.320;18.042;2024-02-15T02:55:57;49.45;;;12.48;;
25657;SDS011;13517;59.320;18.042;2024-02-15T02:58:23;50.33;;;12.10;;
25657;SDS011;13517;59.320;18.042;2024-02-15T03:00:49;114.18;;;13.25;;
25657;SDS011;13517;59.320;18.042;2024-02-15T03:03:15;79.38;;;12.48;;
25657;SDS011;13517;59.320;18.042;2024-02-15T03:05:41;87.25;;;12.02;;
25657;SDS011;13517;59.320;18.042;2024-02-15T03:08:10;145.88;;;12.50;;
25657;SDS011;13517;59.320;18.042;2024-02-15T03:10:38;131.05;;;13.52;;
25657;SDS011;13517;59.320;18.042;2024-02-15T03:13:04;77.78;;;12.63;;
25657;SDS011;13517;59.320;18.042;2024-02-15T03:15:30;76.93;;;13.13;;
25657;SDS011;13517;59.320;18.042;2024-02-15T03:17:58;70.95;;;12.18;;
25657;SDS011;13517;59.320;18.042;2024-02-15T03:20:23;73.93;;;12.02;;
25657;SDS011;13517;59.320;18.042;2024-02-15T03:25:25;57.83;;;11.57;;
25657;SDS011;13517;59.320;18.042;2024-02-15T03:27:51;43.80;;;11.65;;
25657;SDS011;13517;59.320;18.042;2024-02-15T03:30:18;65.55;;;11.52;;
25657;SDS011;13517;59.320;18.042;2024-02-15T03:32:47;58.25;;;10.38;;
25657;SDS011;13517;59.320;18.042;2024-02-15T03:35:14;39.10;;;10.35;;
25657;SDS011;13517;59.320;18.042;2024-02-15T03:37:40;46.25;;;11.02;;
25657;SDS011;13517;59.320;18.042;2024-02-15T03:40:06;44.10;;;11.15;;
25657;SDS011;13517;59.320;18.042;2024-02-15T03:42:33;42.95;;;10.70;;
25657;SDS011;13517;59.320;18.042;2024-02-15T03:45:02;47.20;;;11.45;;
25657;SDS011;13517;59.320;18.042;2024-02-15T03:47:31;46.50;;;10.82;;
25657;SDS011;13517;59.320;18.042;2024-02-15T03:49:58;52.97;;;11.13;;
25657;SDS011;13517;59.320;18.042;2024-02-15T03:52:24;52.15;;;11.20;;
25657;SDS011;13517;59.320;18.042;2024-02-15T03:54:49;38.60;;;10.98;;
25657;SDS011;13517;59.320;18.042;2024-02-15T03:57:15;65.00;;;11.40;;
25657;SDS011;13517;59.320;18.042;2024-02-15T03:59:42;36.40;;;10.32;;
25657;SDS011;13517;59.320;18.042;2024-02-15T04:02:07;33.45;;;9.52;;
25657;SDS011;13517;59.320;18.042;2024-02-15T04:04:37;30.80;;;10.23;;
25657;SDS011;13517;59.320;18.042;2024-02-15T04:07:06;38.90;;;9.90;;
25657;SDS011;13517;59.320;18.042;2024-02-15T04:09:32;33.35;;;9.55;;
25657;SDS011;13517;59.320;18.042;2024-02-15T04:11:58;34.60;;;10.82;;
25657;SDS011;13517;59.320;18.042;2024-02-15T04:14:23;46.25;;;9.43;;
25657;SDS011;13517;59.320;18.042;2024-02-15T04:16:49;43.25;;;10.90;;
25657;SDS011;13517;59.320;18.042;2024-02-15T04:19:14;35.35;;;9.55;;
25657;SDS011;13517;59.320;18.042;2024-02-15T04:21:40;77.55;;;11.05;;
25657;SDS011;13517;59.320;18.042;2024-02-15T04:24:06;72.60;;;11.15;;
25657;SDS011;13517;59.320;18.042;2024-02-15T04:26:31;33.92;;;9.45;;
25657;SDS011;13517;59.320;18.042;2024-02-15T04:28:58;33.95;;;9.98;;
25657;SDS011;13517;59.320;18.042;2024-02-15T04:31:24;29.05;;;9.15;;
25657;SDS011;13517;59.320;18.042;2024-02-15T04:33:53;27.85;;;8.65;;
25657;SDS011;13517;59.320;18.042;2024-02-15T04:36:19;27.15;;;8.88;;
25657;SDS011;13517;59.320;18.042;2024-02-15T04:38:48;31.02;;;9.70;;
25657;SDS011;13517;59.320;18.042;2024-02-15T04:41:15;31.65;;;9.75;;
25657;SDS011;13517;59.320;18.042;2024-02-15T04:43:45;34.47;;;9.93;;
25657;SDS011;13517;59.320;18.042;2024-02-15T04:46:12;30.63;;;9.65;;
25657;SDS011;13517;59.320;18.042;2024-02-15T04:48:39;39.35;;;11.25;;
25657;SDS011;13517;59.320;18.042;2024-02-15T04:51:06;40.50;;;10.73;;
25657;SDS011;13517;59.320;18.042;2024-02-15T04:53:32;41.28;;;12.05;;
25657;SDS011;13517;59.320;18.042;2024-02-15T04:55:57;38.47;;;11.95;;
25657;SDS011;13517;59.320;18.042;2024-02-15T04:58:26;28.02;;;10.02;;
25657;SDS011;13517;59.320;18.042;2024-02-15T05:00:53;40.30;;;11.80;;
25657;SDS011;13517;59.320;18.042;2024-02-15T05:03:23;35.10;;;11.02;;
25657;SDS011;13517;59.320;18.042;2024-02-15T05:05:49;40.60;;;11.35;;
25657;SDS011;13517;59.320;18.042;2024-02-15T05:08:15;35.03;;;10.68;;
25657;SDS011;13517;59.320;18.042;2024-02-15T05:10:40;40.53;;;11.40;;
25657;SDS011;13517;59.320;18.042;2024-02-15T05:13:06;39.03;;;11.40;;
25657;SDS011;13517;59.320;18.042;2024-02-15T05:15:31;38.17;;;10.48;;
25657;SDS011;13517;59.320;18.042;2024-02-15T05:17:58;45.63;;;10.55;;
25657;SDS011;13517;59.320;18.042;2024-02-15T05:20:23;41.35;;;11.18;;
25657;SDS011;13517;59.320;18.042;2024-02-15T05:22:52;66.28;;;11.18;;
25657;SDS011;13517;59.320;18.042;2024-02-15T05:25:20;43.53;;;11.75;;
25657;SDS011;13517;59.320;18.042;2024-02-15T05:27:48;36.72;;;10.93;;
25657;SDS011;13517;59.320;18.042;2024-02-15T05:30:14;63.30;;;12.38;;
25657;SDS011;13517;59.320;18.042;2024-02-15T05:32:40;41.35;;;10.43;;
25657;SDS011;13517;59.320;18.042;2024-02-15T05:35:10;63.00;;;12.20;;
25657;SDS011;13517;59.320;18.042;2024-02-15T05:37:36;45.83;;;11.63;;
25657;SDS011;13517;59.320;18.042;2024-02-15T05:40:03;50.00;;;11.55;;
25657;SDS011;13517;59.320;18.042;2024-02-15T05:42:29;55.55;;;12.57;;
25657;SDS011;13517;59.320;18.042;2024-02-15T05:44:55;46.35;;;11.93;;
25657;SDS011;13517;59.320;18.042;2024-02-15T05:47:20;69.30;;;12.45;;
25657;SDS011;13517;59.320;18.042;2024-02-15T05:49:45;54.95;;;11.18;;
25657;SDS011;13517;59.320;18.042;2024-02-15T05:52:12;62.45;;;12.85;;
25657;SDS011;13517;59.320;18.042;2024-02-15T05:54:37;49.10;;;11.48;;
25657;SDS011;13517;59.320;18.042;2024-02-15T05:57:04;57.30;;;12.32;;
25657;SDS011;13517;59.320;18.042;2024-02-15T05:59:30;70.07;;;12.90;;
25657;SDS011;13517;59.320;18.042;2024-02-15T06:01:55;153.93;;;13.23;;
25657;SDS011;13517;59.320;18.042;2024-02-15T06:04:21;61.72;;;12.60;;
25657;SDS011;13517;59.320;18.042;2024-02-15T06:06:48;47.78;;;11.25;;
25657;SDS011;13517;59.320;18.042;2024-02-15T06:09:15;45.88;;;10.48;;
25657;SDS011;13517;59.320;18.042;2024-02-15T06:11:41;56.10;;;12.10;;
25657;SDS011;13517;59.320;18.042;2024-02-15T06:14:09;44.63;;;11.18;;
25657;SDS011;13517;59.320;18.042;2024-02-15T06:16:41;40.85;;;11.05;;
25657;SDS011;13517;59.320;18.042;2024-02-15T06:19:08;44.67;;;10.53;;
25657;SDS011;13517;59.320;18.042;2024-02-15T06:21:33;39.22;;;11.68;;
25657;SDS011;13517;59.320;18.042;2024-02-15T06:23:59;49.83;;;11.57;;
25657;SDS011;13517;59.320;18.042;2024-02-15T06:26:24;42.55;;;12.15;;
25657;SDS011;13517;59.320;18.042;2024-02-15T06:28:50;40.45;;;11.10;;
25657;SDS011;13517;59.320;18.042;2024-02-15T06:31:34;41.50;;;11.10;;
25657;SDS011;13517;59.320;18.042;2024-02-15T06:34:18;33.45;;;10.15;;
25657;SDS011;13517;59.320;18.042;2024-02-15T06:37:02;32.95;;;10.75;;
25657;SDS011;13517;59.320;18.042;2024-02-15T06:39:46;37.75;;;11.02;;
25657;SDS011;13517;59.320;18.042;2024-02-15T06:42:12;39.70;;;11.52;;
25657;SDS011;13517;59.320;18.042;2024-02-15T06:44:44;36.58;;;11.45;;
25657;SDS011;13517;59.320;18.042;2024-02-15T06:47:11;44.90;;;11.95;;
25657;SDS011;13517;59.320;18.042;2024-02-15T06:49:40;48.47;;;11.48;;
25657;SDS011;13517;59.320;18.042;2024-02-15T06:52:09;44.25;;;12.10;;
25657;SDS011;13517;59.320;18.042;2024-02-15T06:54:39;45.50;;;12.35;;
25657;SDS011;13517;59.320;18.042;2024-02-15T06:57:06;47.28;;;13.18;;
25657;SDS011;13517;59.320;18.042;2024-02-15T06:59:31;49.92;;;13.20;;
25657;SDS011;13517;59.320;18.042;2024-02-15T07:01:58;44.10;;;11.52;;
25657;SDS011;13517;59.320;18.042;2024-02-15T07:04:24;47.88;;;12.05;;
25657;SDS011;13517;59.320;18.042;2024-02-15T07:06:51;47.70;;;12.10;;
25657;SDS011;13517;59.320;18.042;2024-02-15T07:09:19;53.90;;;13.68;;
25657;SDS011;13517;59.320;18.042;2024-02-15T07:11:45;63.92;;;13.80;;
25657;SDS011;13517;59.320;18.042;2024-02-15T07:14:11;55.80;;;13.40;;
25657;SDS011;13517;59.320;18.042;2024-02-15T07:16:43;143.18;;;17.33;;
25657;SDS011;13517;59.320;18.042;2024-02-15T07:19:10;62.13;;;14.13;;
25657;SDS011;13517;59.320;18.042;2024-02-15T07:21:36;74.10;;;13.95;;
25657;SDS011;13517;59.320;18.042;2024-02-15T07:24:03;55.40;;;14.40;;
25657;SDS011;13517;59.320;18.042;2024-02-15T07:26:29;64.82;;;15.32;;
25657;SDS011;13517;59.320;18.042;2024-02-15T07:28:55;58.63;;;14.27;;
25657;SDS011;13517;59.320;18.042;2024-02-15T07:31:22;61.53;;;15.00;;
25657;SDS011;13517;59.320;18.042;2024-02-15T07:33:48;81.20;;;15.20;;
25657;SDS011;13517;59.320;18.042;2024-02-15T07:36:22;61.92;;;13.32;;
25657;SDS011;13517;59.320;18.042;2024-02-15T07:38:52;61.13;;;15.25;;
25657;SDS011;13517;59.320;18.042;2024-02-15T07:41:18;66.50;;;14.27;;
25657;SDS011;13517;59.320;18.042;2024-02-15T07:43:47;59.13;;;14.70;;
25657;SDS011;13517;59.320;18.042;2024-02-15T07:46:13;58.92;;;14.63;;
25657;SDS011;13517;59.320;18.042;2024-02-15T07:48:44;58.50;;;13.77;;
25657;SDS011;13517;59.320;18.042;2024-02-15T07:51:14;52.25;;;14.25;;
25657;SDS011;13517;59.320;18.042;2024-02-15T07:53:40;47.40;;;13.27;;
25657;SDS011;13517;59.320;18.042;2024-02-15T07:56:08;48.63;;;13.95;;
25657;SDS011;13517;59.320;18.042;2024-02-15T07:58:37;42.30;;;14.10;;
25657;SDS011;13517;59.320;18.042;2024-02-15T08:01:04;41.00;;;13.15;;
25657;SDS011;13517;59.320;18.042;2024-02-15T08:03:30;43.65;;;12.55;;
25657;SDS011;13517;59.320;18.042;2024-02-15T08:05:56;37.47;;;11.63;;
25657;SDS011;13517;59.320;18.042;2024-02-15T08:08:21;39.70;;;13.70;;
25657;SDS011;13517;59.320;18.042;2024-02-15T08:10:46;37.28;;;13.40;;
25657;SDS011;13517;59.320;18.042;2024-02-15T08:13:14;43.97;;;13.70;;
25657;SDS011;13517;59.320;18.042;2024-02-15T08:15:40;43.00;;;13.82;;
25657;SDS011;13517;59.320;18.042;2024-02-15T08:18:05;50.88;;;16.88;;
25657;SDS011;13517;59.320;18.042;2024-02-15T08:20:34;47.83;;;15.13;;
25657;SDS011;13517;59.320;18.042;2024-02-15T08:22:59;52.88;;;15.15;;
25657;SDS011;13517;59.320;18.042;2024-02-15T08:25:25;57.22;;;16.67;;
25657;SDS011;13517;59.320;18.042;2024-02-15T08:27:50;53.05;;;16.83;;
25657;SDS011;13517;59.320;18.042;2024-02-15T08:30:16;52.70;;;16.02;;
25657;SDS011;13517;59.320;18.042;2024-02-15T08:32:42;52.75;;;17.65;;
25657;SDS011;13517;59.320;18.042;2024-02-15T08:35:09;56.95;;;16.65;;
25657;SDS011;13517;59.320;18.042;2024-02-15T08:37:38;52.42;;;16.67;;
25657;SDS011;13517;59.320;18.042;2024-02-15T08:40:05;50.60;;;17.40;;
25657;SDS011;13517;59.320;18.042;2024-02-15T08:42:43;54.15;;;17.48;;
25657;SDS011;13517;59.320;18.042;2024-02-15T08:45:09;46.60;;;18.02;;
25657;SDS011;13517;59.320;18.042;2024-02-15T08:47:39;52.28;;;19.38;;
25657;SDS011;13517;59.320;18.042;2024-02-15T08:50:07;48.60;;;18.48;;
25657;SDS011;13517;59.320;18.042;2024-02-15T08:52:34;44.90;;;16.60;;
25657;SDS011;13517;59.320;18.042;2024-02-15T08:55:03;56.63;;;19.40;;
25657;SDS011;13517;59.320;18.042;2024-02-15T08:57:32;48.03;;;18.52;;
25657;SDS011;13517;59.320;18.042;2024-02-15T08:59:58;48.88;;;18.27;;
25657;SDS011;13517;59.320;18.042;2024-02-15T09:02:24;51.22;;;19.40;;
25657;SDS011;13517;59.320;18.042;2024-02-15T09:04:49;52.13;;;19.52;;
25657;SDS011;13517;59.320;18.042;2024-02-15T09:07:15;45.00;;;18.45;;
25657;SDS011;13517;59.320;18.042;2024-02-15T09:09:40;51.65;;;18.85;;
25657;SDS011;13517;59.320;18.042;2024-02-15T09:12:05;43.45;;;17.58;;
25657;SDS011;13517;59.320;18.042;2024-02-15T09:14:34;50.78;;;17.50;;
25657;SDS011;13517;59.320;18.042;2024-02-15T09:17:04;48.40;;;17.83;;
25657;SDS011;13517;59.320;18.042;2024-02-15T09:19:35;44.28;;;17.95;;
25657;SDS011;13517;59.320;18.042;2024-02-15T09:22:01;47.67;;;18.52;;
25657;SDS011;13517;59.320;18.042;2024-02-15T09:24:29;41.78;;;18.00;;
25657;SDS011;13517;59.320;18.042;2024-02-15T09:26:55;38.28;;;17.17;;
25657;SDS011;13517;59.320;18.042;2024-02-15T09:29:21;44.00;;;18.23;;
25657;SDS011;13517;59.320;18.042;2024-02-15T09:31:49;42.35;;;17.27;;
25657;SDS011;13517;59.320;18.042;2024-02-15T09:34:15;46.63;;;17.63;;
25657;SDS011;13517;59.320;18.042;2024-02-15T09:36:40;45.83;;;18.52;;
25657;SDS011;13517;59.320;18.042;2024-02-15T09:39:05;43.80;;;18.27;;
25657;SDS011;13517;59.320;18.042;2024-02-15T09:41:31;53.20;;;19.30;;
25657;SDS011;13517;59.320;18.042;2024-02-15T09:43:58;41.60;;;16.83;;
25657;SDS011;13517;59.320;18.042;2024-02-15T09:46:26;43.95;;;17.40;;
25657;SDS011;13517;59.320;18.042;2024-02-15T09:48:51;40.85;;;17.48;;
25657;SDS011;13517;59.320;18.042;2024-02-15T09:51:23;42.80;;;18.58;;
25657;SDS011;13517;59.320;18.042;2024-02-15T09:53:51;35.03;;;17.42;;
25657;SDS011;13517;59.320;18.042;2024-02-15T09:56:17;36.85;;;17.17;;
25657;SDS011;13517;59.320;18.042;2024-02-15T09:58:43;43.95;;;18.67;;
25657;SDS011;13517;59.320;18.042;2024-02-15T10:01:10;35.25;;;16.38;;
25657;SDS011;13517;59.320;18.042;2024-02-15T10:03:37;42.95;;;17.83;;
25657;SDS011;13517;59.320;18.042;2024-02-15T10:06:05;38.70;;;16.98;;
25657;SDS011;13517;59.320;18.042;2024-02-15T10:08:31;39.28;;;17.63;;
25657;SDS011;13517;59.320;18.042;2024-02-15T10:11:09;33.17;;;15.70;;
25657;SDS011;13517;59.320;18.042;2024-02-15T10:13:35;34.67;;;16.65;;
25657;SDS011;13517;59.320;18.042;2024-02-15T10:16:14;35.00;;;16.40;;
25657;SDS011;13517;59.320;18.042;2024-02-15T10:18:40;33.10;;;16.35;;
25657;SDS011;13517;59.320;18.042;2024-02-15T10:21:05;43.95;;;16.77;;
25657;SDS011;13517;59.320;18.042;2024-02-15T10:23:30;32.63;;;15.60;;
25657;SDS011;13517;59.320;18.042;2024-02-15T10:25:56;31.83;;;15.65;;
25657;SDS011;13517;59.320;18.042;2024-02-15T10:28:23;33.35;;;15.20;;
25657;SDS011;13517;59.320;18.042;2024-02-15T10:30:49;31.70;;;15.73;;
25657;SDS011;13517;59.320;18.042;2024-02-15T10:33:18;32.42;;;15.85;;
25657;SDS011;13517;59.320;18.042;2024-02-15T10:35:47;37.97;;;16.73;;
25657;SDS011;13517;59.320;18.042;2024-02-15T10:38:13;29.55;;;15.00;;
25657;SDS011;13517;59.320;18.042;2024-02-15T10:40:40;33.10;;;15.98;;
25657;SDS011;13517;59.320;18.042;2024-02-15T10:43:07;33.67;;;14.68;;
25657;SDS011;13517;59.320;18.042;2024-02-15T10:45:35;37.10;;;15.65;;
25657;SDS011;13517;59.320;18.042;2024-02-15T10:48:02;32.53;;;15.57;;
25657;SDS011;13517;59.320;18.042;2024-02-15T10:50:30;39.50;;;16.13;;
25657;SDS011;13517;59.320;18.042;2024-02-15T10:52:56;28.77;;;15.32;;
25657;SDS011;13517;59.320;18.042;2024-02-15T10:55:37;38.72;;;15.88;;
25657;SDS011;13517;59.320;18.042;2024-02-15T10:58:05;36.30;;;14.85;;
25657;SDS011;13517;59.320;18.042;2024-02-15T11:00:32;35.28;;;14.02;;
25657;SDS011;13517;59.320;18.042;2024-02-15T11:03:03;36.00;;;15.57;;
25657;SDS011;13517;59.320;18.042;2024-02-15T11:05:36;37.65;;;15.50;;
25657;SDS011;13517;59.320;18.042;2024-02-15T11:08:04;34.03;;;15.07;;
25657;SDS011;13517;59.320;18.042;2024-02-15T11:10:32;33.47;;;14.63;;
25657;SDS011;13517;59.320;18.042;2024-02-15T11:12:59;49.40;;;15.80;;
25657;SDS011;13517;59.320;18.042;2024-02-15T11:15:39;42.35;;;15.05;;
25657;SDS011;13517;59.320;18.042;2024-02-15T11:18:07;42.00;;;15.88;;
25657;SDS011;13517;59.320;18.042;2024-02-15T11:22:58;36.05;;;15.73;;
25657;SDS011;13517;59.320;18.042;2024-02-15T11:25:34;33.78;;;16.13;;
25657;SDS011;13517;59.320;18.042;2024-02-15T11:28:44;34.97;;;16.15;;
25657;SDS011;13517;59.320;18.042;2024-02-15T11:30:54;37.55;;;15.73;;
25657;SDS011;13517;59.320;18.042;2024-02-15T11:33:28;35.45;;;15.07;;
25657;SDS011;13517;59.320;18.042;2024-02-15T11:36:04;35.97;;;14.98;;
25657;SDS011;13517;59.320;18.042;2024-02-15T11:38:34;38.42;;;16.33;;
25657;SDS011;13517;59.320;18.042;2024-02-15T11:43:52;37.17;;;16.13;;
25657;SDS011;13517;59.320;18.042;2024-02-15T11:46:21;37.05;;;14.95;;
25657;SDS011;13517;59.320;18.042;2024-02-15T11:48:49;38.00;;;17.23;;
25657;SDS011;13517;59.320;18.042;2024-02-15T11:51:29;41.63;;;17.40;;
25657;SDS011;13517;59.320;18.042;2024-02-15T11:54:02;37.55;;;17.17;;
25657;SDS011;13517;59.320;18.042;2024-02-15T11:56:53;35.08;;;16.42;;
25657;SDS011;13517;59.320;18.042;2024-02-15T11:59:37;39.17;;;16.70;;
25657;SDS011;13517;59.320;18.042;2024-02-15T12:02:08;36.45;;;16.70;;
25657;SDS011;13517;59.320;18.042;2024-02-15T12:04:52;36.25;;;16.33;;
25657;SDS011;13517;59.320;18.042;2024-02-15T12:07:35;37.10;;;17.25;;
25657;SDS011;13517;59.320;18.042;2024-02-15T12:10:19;39.30;;;18.95;;
25657;SDS011;13517;59.320;18.042;2024-02-15T12:13:03;35.72;;;16.08;;
25657;SDS011;13517;59.320;18.042;2024-02-15T12:16:00;29.75;;;15.55;;
25657;SDS011;13517;59.320;18.042;2024-02-15T12:18:44;34.28;;;16.15;;
25657;SDS011;13517;59.320;18.042;2024-02-15T12:21:14;36.58;;;16.27;;
25657;SDS011;13517;59.320;18.042;2024-02-15T12:23:41;41.15;;;17.23;;
25657;SDS011;13517;59.320;18.042;2024-02-15T12:26:07;38.97;;;17.02;;
25657;SDS011;13517;59.320;18.042;2024-02-15T12:28:33;43.20;;;17.23;;
25657;SDS011;13517;59.320;18.042;2024-02-15T12:31:00;40.25;;;17.20;;
25657;SDS011;13517;59.320;18.042;2024-02-15T12:33:27;38.10;;;17.73;;
25657;SDS011;13517;59.320;18.042;2024-02-15T12:35:52;42.10;;;17.17;;
25657;SDS011;13517;59.320;18.042;2024-02-15T12:38:30;35.90;;;17.25;;
25657;SDS011;13517;59.320;18.042;2024-02-15T12:40:55;44.40;;;18.80;;
25657;SDS011;13517;59.320;18.042;2024-02-15T12:43:21;44.58;;;17.00;;
25657;SDS011;13517;59.320;18.042;2024-02-15T12:45:47;48.92;;;19.17;;
25657;SDS011;13517;59.320;18.042;2024-02-15T12:48:12;44.15;;;18.02;;
25657;SDS011;13517;59.320;18.042;2024-02-15T12:50:40;42.38;;;17.52;;
25657;SDS011;13517;59.320;18.042;2024-02-15T12:53:06;40.55;;;17.25;;
25657;SDS011;13517;59.320;18.042;2024-02-15T12:55:33;47.63;;;17.85;;
25657;SDS011;13517;59.320;18.042;2024-02-15T12:58:00;48.20;;;19.15;;
25657;SDS011;13517;59.320;18.042;2024-02-15T13:00:29;45.90;;;18.80;;
25657;SDS011;13517;59.320;18.042;2024-02-15T13:02:59;48.90;;;17.73;;
25657;SDS011;13517;59.320;18.042;2024-02-15T13:05:28;48.90;;;17.52;;
25657;SDS011;13517;59.320;18.042;2024-02-15T13:07:54;45.88;;;17.58;;
25657;SDS011;13517;59.320;18.042;2024-02-15T13:10:20;51.45;;;17.98;;
25657;SDS011;13517;59.320;18.042;2024-02-15T13:12:47;51.33;;;19.08;;
25657;SDS011;13517;59.320;18.042;2024-02-15T13:15:13;48.22;;;19.25;;
25657;SDS011;13517;59.320;18.042;2024-02-15T13:17:49;51.20;;;19.58;;
25657;SDS011;13517;59.320;18.042;2024-02-15T13:20:18;52.03;;;19.38;;
25657;SDS011;13517;59.320;18.042;2024-02-15T13:22:45;56.17;;;19.77;;
25657;SDS011;13517;59.320;18.042;2024-02-15T13:25:13;62.65;;;18.95;;
25657;SDS011;13517;59.320;18.042;2024-02-15T13:27:41;60.42;;;17.58;;
25657;SDS011;13517;59.320;18.042;2024-02-15T13:30:08;55.38;;;18.73;;
25657;SDS011;13517;59.320;18.042;2024-02-15T13:32:37;51.10;;;19.60;;
25657;SDS011;13517;59.320;18.042;2024-02-15T13:35:07;68.18;;;19.55;;
25657;SDS011;13517;59.320;18.042;2024-02-15T13:37:40;76.00;;;22.00;;
25657;SDS011;13517;59.320;18.042;2024-02-15T13:40:08;100.30;;;23.27;;
25657;SDS011;13517;59.320;18.042;2024-02-15T13:42:42;89.47;;;22.67;;
25657;SDS011;13517;59.320;18.042;2024-02-15T13:45:18;91.25;;;21.70;;
25657;SDS011;13517;59.320;18.042;2024-02-15T13:47:44;69.78;;;22.13;;
25657;SDS011;13517;59.320;18.042;2024-02-15T13:50:13;92.50;;;22.38;;
25657;SDS011;13517;59.320;18.042;2024-02-15T13:52:45;67.72;;;22.65;;
25657;SDS011;13517;59.320;18.042;2024-02-15T13:55:14;119.10;;;20.67;;
25657;SDS011;13517;59.320;18.042;2024-02-15T13:57:42;62.38;;;18.33;;
25657;SDS011;13517;59.320;18.042;2024-02-15T14:00:10;71.78;;;19.65;;
25657;SDS011;13517;59.320;18.042;2024-02-15T14:02:42;82.93;;;19.90;;
25657;SDS011;13517;59.320;18.042;2024-02-15T14:05:10;118.80;;;21.15;;
25657;SDS011;13517;59.320;18.042;2024-02-15T14:07:37;88.55;;;20.00;;
25657;SDS011;13517;59.320;18.042;2024-02-15T14:10:04;176.32;;;23.27;;
25657;SDS011;13517;59.320;18.042;2024-02-15T14:12:30;180.13;;;20.52;;
25657;SDS011;13517;59.320;18.042;2024-02-15T14:14:56;110.30;;;19.20;;
25657;SDS011;13517;59.320;18.042;2024-02-15T14:17:21;110.53;;;19.30;;
25657;SDS011;13517;59.320;18.042;2024-02-15T14:19:47;117.10;;;18.17;;